Portada
METAR-TAF:

METAR-TAF

Aeroports :

Avinyó, França

latitud: 43-54-26N, longitud: 004-54-07E, altitud: 38 m

Observació

L'informe es va fer fa 18 minuts, a les 10:30 UTC
Vent 15 kt del Nord-Oest
Temperatura 9°C
Humitat 57%
Pressió 1012 hPa
Visibilitat 10 km o més
sense núvols per sota de 1500 mi sense presència de cumulonimbus.

METAR: LFMV 261030Z AUTO 32015KT CAVOK 09/01 Q1012 BECMG 32020G30KT

Hora: 11:48 (10:48 UTC)

Pronòstic

L'informe es va fer fa 2 hores i 48 minuts, a les 08:00 UTC
Pronòstic vàlid del 26 a les 09 UTC al 27 a les 09 UTC
Vent 20 kt del Nord-Oest amb ràfegues de 30 kt
Visibilitat 10 km o més
sense núvols per sota de 1500 mi sense presència de cumulonimbus.
Evolucionant progressivament
l' 26 a les 18 UTC al 26 a les 19 UTC
Vent 10 kt del Nord-Oest amb ràfegues de 20 kt
Evolucionant progressivament
l' 26 a les 20 UTC al 26 a les 21 UTC
Vent 5 kt amb direcció variable

TAF: LFMV 260800Z 2609/2709 32020G30KT CAVOK BECMG 2618/2619 32010G20KT BECMG 2620/2621 VRB05KT

Observacions i pronòstics meteorològics de més de 4000 aeroports (METAR i TAF).

Les estacions disponibles són els punts grocs i vermells al mapa.

Posi el ratolí al punt desitjat per veure el nom de l'estació.

Feu clic per veure les observacions i els pronòstics meteorològics.

Per canviar el mapa: feu clic els botons verds amb una creu de color negre per apropar; al botó verd amb un guió per allunyar la imatge; o en les fletxes verdes per a mapes adjacents.


METAR-TAF: